Airfield :
LOGIN :

Register | Disclaimer

   EN    FR    IT 

 










Legend :    VFR   Marginal VFR   IFR   Intensive IFR   Very Intensive IFR
Visi :
Ceiling :
>= 8 km
>= 3000ft
5 to 8 km
1000 to 3000 ft
1500m to 5 km
500 to 1000 ft
800 to 1500m
200 to 500 ft
< 800m
< 200 ft
Symbols :   Thunderstorms  Fog  Heavy snow  Heavy precipitations  Wind > 20 kt
SIGMETs :     Misc.  Thunderstorms  Icing  Turbulence  Mountain Waves  Volcanic Ashes







- Airport Elevation : 142 ft
- IATA code : ALC


LEAL - Alicante

CURRENT METAR :
  • 181730Z 03005KT 010V070 CAVOK 13/11 Q1022 NOSIG

EXPIRED METARs :
  • 181700Z 05005KT 020V080 CAVOK 14/11 Q1022 NOSIG
  • 181630Z 08004KT 040V120 9999 FEW017 14/11 Q1022 NOSIG
  • 181600Z 09006KT CAVOK 15/11 Q1022 NOSIG
  • 181530Z 09007KT 050V140 CAVOK 15/11 Q1022 NOSIG
  • 181500Z 09008KT 050V110 CAVOK 16/10 Q1022 NOSIG

TAF TAF LEAL
Valid from the 18 at 18:00 until the 19 at 18:00 UTC


181700Z 1818/1918 06008KT 9999 FEW020 TX20/1913Z TN09/1907Z
BECMG 1818/1820 32005KT
No reported NOTAMs for that airfield.



MET'MAP, your aeronautical weather chart ! - Copyright ORBIFLY December 2007 - Disclaimer

ORBIFLY MET'MAP TEAM :

Programming & Development : Alexandra Zaïnal
Concept & Development : Baudouin d'Aumeries
Co-Development & Prog : Marc-Olivier Méhu
Technical & hardware support : Manuel Goepfert

Contact : metmap@orbifly.com




SOURCES & CREDITS :

   NOAA